Yellow Lake, Wisconsin
Current Conditions -  °F | °C
As of 4:35 PM on Monday 20 Oct 2014 (Local Time) from KRZN Reporting Station
Broken Clouds Broken Clouds  
Wind Chill: 55°   Ceiling: 3400
Heat Index: 55°   Visibility: 10mi
Dew Point: 39°   Wind: 9mph
Humidity: 56%   Direction: 30°NNE
Pressure: 30.01"   Gusts: NA
Location:  46.1107°N, 92.219°W
Report Text: KRZN 202135Z AUTO 03008KT 10SM BKN034 13/04 A3001 RMK AO2 T01260040
Loading
Personal Weather Stations






























Interactive Weather Map
Tropical Storm Tracking
New forecast layout! Learn more

10-Day Weather Forecast

Advertisements
Track Severe Weather on mobile